sensor_id;sensor_type;location;lat;lon;timestamp;pressure;altitude;pressure_sealevel;temperature;humidity
63281;BME280;49406;51.044;3.766;2022-10-15T00:01:41;100889.34;;;14.24;100.00
63281;BME280;49406;51.044;3.766;2022-10-15T00:04:01;100888.54;;;14.14;100.00
63281;BME280;49406;51.044;3.766;2022-10-15T00:06:20;100891.01;;;14.12;100.00
63281;BME280;49406;51.044;3.766;2022-10-15T00:08:40;100893.40;;;14.21;100.00
63281;BME280;49406;51.044;3.766;2022-10-15T00:11:05;100894.62;;;14.24;100.00
63281;BME280;49406;51.044;3.766;2022-10-15T00:13:25;100893.02;;;14.25;100.00
63281;BME280;49406;51.044;3.766;2022-10-15T00:15:44;100893.55;;;14.25;100.00
63281;BME280;49406;51.044;3.766;2022-10-15T00:18:04;100896.45;;;14.12;100.00
63281;BME280;49406;51.044;3.766;2022-10-15T00:20:23;100893.80;;;14.17;100.00
63281;BME280;49406;51.044;3.766;2022-10-15T00:22:42;100892.00;;;14.23;100.00
63281;BME280;49406;51.044;3.766;2022-10-15T00:25:02;100892.14;;;14.25;100.00
63281;BME280;49406;51.044;3.766;2022-10-15T00:27:22;100893.73;;;14.28;100.00
63281;BME280;49406;51.044;3.766;2022-10-15T00:29:40;100899.71;;;14.29;100.00
63281;BME280;49406;51.044;3.766;2022-10-15T00:31:59;100897.48;;;14.19;100.00
63281;BME280;49406;51.044;3.766;2022-10-15T00:34:18;100899.23;;;14.19;100.00
63281;BME280;49406;51.044;3.766;2022-10-15T00:36:38;100899.19;;;14.26;100.00
63281;BME280;49406;51.044;3.766;2022-10-15T00:38:57;100892.67;;;14.29;100.00
63281;BME280;49406;51.044;3.766;2022-10-15T00:41:18;100889.14;;;14.31;100.00
63281;BME280;49406;51.044;3.766;2022-10-15T00:43:43;100888.95;;;14.31;100.00
63281;BME280;49406;51.044;3.766;2022-10-15T00:46:01;100881.22;;;14.32;100.00
63281;BME280;49406;51.044;3.766;2022-10-15T00:48:20;100876.02;;;14.20;100.00
63281;BME280;49406;51.044;3.766;2022-10-15T00:50:40;100872.34;;;14.18;100.00
63281;BME280;49406;51.044;3.766;2022-10-15T00:53:04;100861.06;;;14.21;100.00
63281;BME280;49406;51.044;3.766;2022-10-15T00:55:24;100859.33;;;14.18;100.00
63281;BME280;49406;51.044;3.766;2022-10-15T00:57:47;100858.29;;;14.16;100.00
63281;BME280;49406;51.044;3.766;2022-10-15T01:00:07;100860.64;;;14.04;100.00
63281;BME280;49406;51.044;3.766;2022-10-15T01:02:27;100855.60;;;13.93;100.00
63281;BME280;49406;51.044;3.766;2022-10-15T01:04:47;100857.19;;;13.95;100.00
63281;BME280;49406;51.044;3.766;2022-10-15T01:07:07;100852.63;;;13.90;100.00
63281;BME280;49406;51.044;3.766;2022-10-15T01:09:24;100852.84;;;13.85;100.00
63281;BME280;49406;51.044;3.766;2022-10-15T01:11:45;100858.13;;;13.79;100.00
63281;BME280;49406;51.044;3.766;2022-10-15T01:14:07;100863.42;;;13.74;100.00
63281;BME280;49406;51.044;3.766;2022-10-15T01:16:30;100857.48;;;13.67;100.00
63281;BME280;49406;51.044;3.766;2022-10-15T01:18:55;100849.11;;;13.50;100.00
63281;BME280;49406;51.044;3.766;2022-10-15T01:21:16;100846.30;;;13.52;100.00
63281;BME280;49406;51.044;3.766;2022-10-15T01:24:17;100844.90;;;13.50;100.00
63281;BME280;49406;51.044;3.766;2022-10-15T01:27:08;100840.89;;;13.46;100.00
63281;BME280;49406;51.044;3.766;2022-10-15T01:29:47;100837.73;;;13.40;100.00
63281;BME280;49406;51.044;3.766;2022-10-15T01:32:14;100831.63;;;13.31;100.00
63281;BME280;49406;51.044;3.766;2022-10-15T01:34:39;100828.14;;;13.14;100.00
63281;BME280;49406;51.044;3.766;2022-10-15T01:37:08;100833.40;;;13.14;100.00
63281;BME280;49406;51.044;3.766;2022-10-15T01:39:32;100832.00;;;13.12;100.00
63281;BME280;49406;51.044;3.766;2022-10-15T01:41:56;100827.08;;;13.09;100.00
63281;BME280;49406;51.044;3.766;2022-10-15T01:44:19;100822.70;;;13.06;100.00
63281;BME280;49406;51.044;3.766;2022-10-15T01:46:44;100817.46;;;13.01;100.00
63281;BME280;49406;51.044;3.766;2022-10-15T01:49:05;100820.45;;;12.98;100.00
63281;BME280;49406;51.044;3.766;2022-10-15T01:51:26;100812.75;;;12.84;100.00
63281;BME280;49406;51.044;3.766;2022-10-15T01:53:47;100805.04;;;12.77;100.00
63281;BME280;49406;51.044;3.766;2022-10-15T01:56:11;100802.41;;;12.81;100.00
63281;BME280;49406;51.044;3.766;2022-10-15T01:58:32;100799.09;;;12.78;100.00
63281;BME280;49406;51.044;3.766;2022-10-15T02:00:54;100796.09;;;12.75;100.00
63281;BME280;49406;51.044;3.766;2022-10-15T02:03:15;100792.77;;;12.71;100.00
63281;BME280;49406;51.044;3.766;2022-10-15T02:05:34;100791.02;;;12.55;100.00
63281;BME280;49406;51.044;3.766;2022-10-15T02:07:54;100791.23;;;12.48;100.00
63281;BME280;49406;51.044;3.766;2022-10-15T02:10:20;100795.42;;;12.51;100.00
63281;BME280;49406;51.044;3.766;2022-10-15T02:12:52;100796.30;;;12.48;100.00
63281;BME280;49406;51.044;3.766;2022-10-15T02:15:24;100792.63;;;12.47;100.00
63281;BME280;49406;51.044;3.766;2022-10-15T02:17:50;100791.40;;;12.46;100.00
63281;BME280;49406;51.044;3.766;2022-10-15T02:20:16;100787.70;;;12.50;100.00
63281;BME280;49406;51.044;3.766;2022-10-15T02:22:45;100791.38;;;12.57;100.00
63281;BME280;49406;51.044;3.766;2022-10-15T02:25:09;100785.08;;;12.61;100.00
63281;BME280;49406;51.044;3.766;2022-10-15T02:27:33;100786.46;;;12.62;100.00
63281;BME280;49406;51.044;3.766;2022-10-15T02:29:54;100775.91;;;12.78;100.00
63281;BME280;49406;51.044;3.766;2022-10-15T02:32:15;100771.67;;;12.88;100.00
63281;BME280;49406;51.044;3.766;2022-10-15T02:34:35;100775.70;;;12.97;100.00
63281;BME280;49406;51.044;3.766;2022-10-15T02:36:55;100771.11;;;13.04;100.00
63281;BME280;49406;51.044;3.766;2022-10-15T02:39:19;100775.84;;;13.12;100.00
63281;BME280;49406;51.044;3.766;2022-10-15T02:41:41;100776.70;;;13.19;100.00
63281;BME280;49406;51.044;3.766;2022-10-15T02:44:01;100780.73;;;13.27;100.00
63281;BME280;49406;51.044;3.766;2022-10-15T02:46:21;100775.98;;;13.23;100.00
63281;BME280;49406;51.044;3.766;2022-10-15T02:48:40;100770.90;;;13.28;100.00
63281;BME280;49406;51.044;3.766;2022-10-15T02:51:00;100769.61;;;13.39;100.00
63281;BME280;49406;51.044;3.766;2022-10-15T02:53:19;100764.31;;;13.46;100.00
63281;BME280;49406;51.044;3.766;2022-10-15T02:55:38;100767.45;;;13.52;100.00
63281;BME280;49406;51.044;3.766;2022-10-15T02:57:58;100768.29;;;13.57;100.00
63281;BME280;49406;51.044;3.766;2022-10-15T03:00:17;100757.91;;;13.62;100.00
63281;BME280;49406;51.044;3.766;2022-10-15T03:02:37;100750.36;;;13.57;100.00
63281;BME280;49406;51.044;3.766;2022-10-15T03:04:56;100749.86;;;13.55;100.00
63281;BME280;49406;51.044;3.766;2022-10-15T03:07:14;100750.86;;;13.66;100.00
63281;BME280;49406;51.044;3.766;2022-10-15T03:09:33;100745.91;;;13.70;100.00
63281;BME280;49406;51.044;3.766;2022-10-15T03:11:53;100746.23;;;13.74;100.00
63281;BME280;49406;51.044;3.766;2022-10-15T03:14:12;100739.53;;;13.76;100.00
63281;BME280;49406;51.044;3.766;2022-10-15T03:16:31;100737.61;;;13.77;100.00
63281;BME280;49406;51.044;3.766;2022-10-15T03:18:51;100734.45;;;13.78;100.00
63281;BME280;49406;51.044;3.766;2022-10-15T03:21:10;100732.58;;;13.68;100.00
63281;BME280;49406;51.044;3.766;2022-10-15T03:23:30;100733.61;;;13.70;100.00
63281;BME280;49406;51.044;3.766;2022-10-15T03:25:49;100735.52;;;13.72;100.00
63281;BME280;49406;51.044;3.766;2022-10-15T03:28:09;100736.25;;;13.69;100.00
63281;BME280;49406;51.044;3.766;2022-10-15T03:30:29;100735.07;;;13.63;100.00
63281;BME280;49406;51.044;3.766;2022-10-15T03:32:46;100734.20;;;13.57;100.00
63281;BME280;49406;51.044;3.766;2022-10-15T03:35:07;100727.81;;;13.42;100.00
63281;BME280;49406;51.044;3.766;2022-10-15T03:37:26;100725.56;;;13.35;100.00
63281;BME280;49406;51.044;3.766;2022-10-15T03:39:44;100729.05;;;13.38;100.00
63281;BME280;49406;51.044;3.766;2022-10-15T03:42:03;100725.17;;;13.39;100.00
63281;BME280;49406;51.044;3.766;2022-10-15T03:44:23;100721.64;;;13.42;100.00
63281;BME280;49406;51.044;3.766;2022-10-15T03:46:42;100716.03;;;13.43;100.00
63281;BME280;49406;51.044;3.766;2022-10-15T03:49:00;100711.88;;;13.32;100.00
63281;BME280;49406;51.044;3.766;2022-10-15T03:51:20;100710.98;;;13.35;100.00
63281;BME280;49406;51.044;3.766;2022-10-15T03:53:39;100709.57;;;13.37;100.00
63281;BME280;49406;51.044;3.766;2022-10-15T03:56:03;100711.50;;;13.36;100.00
63281;BME280;49406;51.044;3.766;2022-10-15T03:58:22;100708.52;;;13.35;100.00
63281;BME280;49406;51.044;3.766;2022-10-15T04:00:43;100704.33;;;13.34;100.00
63281;BME280;49406;51.044;3.766;2022-10-15T04:03:02;100700.27;;;13.34;100.00
63281;BME280;49406;51.044;3.766;2022-10-15T04:05:21;100702.36;;;13.37;100.00
63281;BME280;49406;51.044;3.766;2022-10-15T04:07:41;100695.69;;;13.37;100.00
63281;BME280;49406;51.044;3.766;2022-10-15T04:10:00;100693.30;;;13.28;100.00
63281;BME280;49406;51.044;3.766;2022-10-15T04:12:20;100688.87;;;13.34;100.00
63281;BME280;49406;51.044;3.766;2022-10-15T04:14:39;100686.36;;;13.40;100.00
63281;BME280;49406;51.044;3.766;2022-10-15T04:16:59;100681.61;;;13.43;100.00
63281;BME280;49406;51.044;3.766;2022-10-15T04:19:18;100679.52;;;13.45;100.00
63281;BME280;49406;51.044;3.766;2022-10-15T04:21:36;100685.13;;;13.42;100.00
63281;BME280;49406;51.044;3.766;2022-10-15T04:23:55;100691.30;;;13.38;100.00
63281;BME280;49406;51.044;3.766;2022-10-15T04:26:14;100695.66;;;13.46;100.00
63281;BME280;49406;51.044;3.766;2022-10-15T04:28:34;100695.45;;;13.49;100.00
63281;BME280;49406;51.044;3.766;2022-10-15T04:30:56;100692.46;;;13.52;100.00
63281;BME280;49406;51.044;3.766;2022-10-15T04:33:15;100693.14;;;13.54;100.00
63281;BME280;49406;51.044;3.766;2022-10-15T04:35:35;100689.15;;;13.47;100.00
63281;BME280;49406;51.044;3.766;2022-10-15T04:37:54;100685.64;;;13.45;100.00
63281;BME280;49406;51.044;3.766;2022-10-15T04:40:15;100690.69;;;13.52;100.00
63281;BME280;49406;51.044;3.766;2022-10-15T04:42:35;100694.52;;;13.55;100.00
63281;BME280;49406;51.044;3.766;2022-10-15T04:44:54;100691.17;;;13.57;100.00
63281;BME280;49406;51.044;3.766;2022-10-15T04:47:12;100688.00;;;13.58;100.00
63281;BME280;49406;51.044;3.766;2022-10-15T04:49:31;100690.88;;;13.51;100.00
63281;BME280;49406;51.044;3.766;2022-10-15T04:51:51;100681.42;;;13.46;100.00
63281;BME280;49406;51.044;3.766;2022-10-15T04:54:10;100685.41;;;13.54;100.00
63281;BME280;49406;51.044;3.766;2022-10-15T04:56:28;100691.86;;;13.59;100.00
63281;BME280;49406;51.044;3.766;2022-10-15T04:58:48;100688.16;;;13.60;100.00
63281;BME280;49406;51.044;3.766;2022-10-15T05:01:07;100684.33;;;13.58;100.00
63281;BME280;49406;51.044;3.766;2022-10-15T05:03:29;100683.18;;;13.47;100.00
63281;BME280;49406;51.044;3.766;2022-10-15T05:05:48;100680.14;;;13.54;100.00
63281;BME280;49406;51.044;3.766;2022-10-15T05:08:08;100676.94;;;13.59;100.00
63281;BME280;49406;51.044;3.766;2022-10-15T05:10:27;100674.30;;;13.61;100.00
63281;BME280;49406;51.044;3.766;2022-10-15T05:12:46;100673.08;;;13.62;100.00
63281;BME280;49406;51.044;3.766;2022-10-15T05:15:07;100668.54;;;13.56;100.00
63281;BME280;49406;51.044;3.766;2022-10-15T05:17:27;100664.40;;;13.46;100.00
63281;BME280;49406;51.044;3.766;2022-10-15T05:19:47;100663.46;;;13.52;100.00
63281;BME280;49406;51.044;3.766;2022-10-15T05:22:07;100665.58;;;13.52;100.00
63281;BME280;49406;51.044;3.766;2022-10-15T05:24:24;100669.80;;;13.50;100.00
63281;BME280;49406;51.044;3.766;2022-10-15T05:26:42;100662.29;;;13.47;100.00
63281;BME280;49406;51.044;3.766;2022-10-15T05:29:02;100659.71;;;13.36;100.00
63281;BME280;49406;51.044;3.766;2022-10-15T05:31:24;100656.79;;;13.24;100.00
63281;BME280;49406;51.044;3.766;2022-10-15T05:33:43;100657.65;;;13.26;100.00
63281;BME280;49406;51.044;3.766;2022-10-15T05:36:14;100649.42;;;13.22;100.00
63281;BME280;49406;51.044;3.766;2022-10-15T05:38:34;100652.07;;;13.16;100.00
63281;BME280;49406;51.044;3.766;2022-10-15T05:40:53;100653.31;;;13.13;100.00
63281;BME280;49406;51.044;3.766;2022-10-15T05:43:13;100648.75;;;13.13;100.00
63281;BME280;49406;51.044;3.766;2022-10-15T05:45:32;100647.71;;;13.12;100.00
63281;BME280;49406;51.044;3.766;2022-10-15T05:47:55;100646.48;;;13.10;100.00
63281;BME280;49406;51.044;3.766;2022-10-15T05:50:15;100647.05;;;13.03;100.00
63281;BME280;49406;51.044;3.766;2022-10-15T05:52:34;100643.84;;;13.11;100.00
63281;BME280;49406;51.044;3.766;2022-10-15T05:54:54;100641.73;;;13.15;100.00
63281;BME280;49406;51.044;3.766;2022-10-15T05:57:13;100639.95;;;13.17;100.00
63281;BME280;49406;51.044;3.766;2022-10-15T05:59:32;100636.61;;;13.17;100.00
63281;BME280;49406;51.044;3.766;2022-10-15T06:01:52;100633.81;;;13.17;100.00
63281;BME280;49406;51.044;3.766;2022-10-15T06:04:11;100632.10;;;13.06;100.00
63281;BME280;49406;51.044;3.766;2022-10-15T06:06:30;100629.81;;;13.06;100.00
63281;BME280;49406;51.044;3.766;2022-10-15T06:08:50;100627.16;;;13.14;100.00
63281;BME280;49406;51.044;3.766;2022-10-15T06:11:10;100621.55;;;13.17;100.00
63281;BME280;49406;51.044;3.766;2022-10-15T06:13:29;100622.75;;;13.22;100.00
63281;BME280;49406;51.044;3.766;2022-10-15T06:15:49;100619.91;;;13.27;100.00
63281;BME280;49406;51.044;3.766;2022-10-15T06:18:08;100619.88;;;13.33;100.00
63281;BME280;49406;51.044;3.766;2022-10-15T06:20:28;100616.14;;;13.38;100.00
63281;BME280;49406;51.044;3.766;2022-10-15T06:22:47;100610.33;;;13.44;100.00
63281;BME280;49406;51.044;3.766;2022-10-15T06:25:08;100606.45;;;13.45;100.00
63281;BME280;49406;51.044;3.766;2022-10-15T06:27:28;100607.34;;;13.42;100.00
63281;BME280;49406;51.044;3.766;2022-10-15T06:29:47;100608.46;;;13.56;100.00
63281;BME280;49406;51.044;3.766;2022-10-15T06:32:09;100608.41;;;13.65;100.00
63281;BME280;49406;51.044;3.766;2022-10-15T06:34:29;100605.73;;;13.69;100.00
63281;BME280;49406;51.044;3.766;2022-10-15T06:36:48;100604.09;;;13.74;100.00
63281;BME280;49406;51.044;3.766;2022-10-15T06:39:07;100596.69;;;13.79;100.00
63281;BME280;49406;51.044;3.766;2022-10-15T06:41:28;100592.95;;;13.84;100.00
63281;BME280;49406;51.044;3.766;2022-10-15T06:43:48;100592.38;;;13.88;100.00
63281;BME280;49406;51.044;3.766;2022-10-15T06:46:08;100590.00;;;13.81;100.00
63281;BME280;49406;51.044;3.766;2022-10-15T06:48:28;100585.70;;;13.90;100.00
63281;BME280;49406;51.044;3.766;2022-10-15T06:50:47;100585.63;;;13.97;100.00
63281;BME280;49406;51.044;3.766;2022-10-15T06:53:07;100585.38;;;14.03;100.00
63281;BME280;49406;51.044;3.766;2022-10-15T06:55:27;100584.98;;;14.08;100.00
63281;BME280;49406;51.044;3.766;2022-10-15T06:57:48;100580.89;;;14.13;100.00
63281;BME280;49406;51.044;3.766;2022-10-15T07:00:10;100578.90;;;14.18;100.00
63281;BME280;49406;51.044;3.766;2022-10-15T07:02:29;100577.35;;;14.14;100.00
63281;BME280;49406;51.044;3.766;2022-10-15T07:04:48;100574.20;;;14.15;100.00
63281;BME280;49406;51.044;3.766;2022-10-15T07:07:08;100572.67;;;14.24;100.00
63281;BME280;49406;51.044;3.766;2022-10-15T07:09:26;100569.48;;;14.27;100.00
63281;BME280;49406;51.044;3.766;2022-10-15T07:11:45;100568.23;;;14.30;100.00
63281;BME280;49406;51.044;3.766;2022-10-15T07:14:04;100566.99;;;14.30;100.00
63281;BME280;49406;51.044;3.766;2022-10-15T07:16:24;100566.17;;;14.23;100.00
63281;BME280;49406;51.044;3.766;2022-10-15T07:18:42;100558.90;;;14.30;100.00
63281;BME280;49406;51.044;3.766;2022-10-15T07:21:01;100560.23;;;14.35;100.00
63281;BME280;49406;51.044;3.766;2022-10-15T07:23:21;100556.69;;;14.38;100.00
63281;BME280;49406;51.044;3.766;2022-10-15T07:25:40;100555.80;;;14.39;100.00
63281;BME280;49406;51.044;3.766;2022-10-15T07:28:00;100553.66;;;14.41;100.00
63281;BME280;49406;51.044;3.766;2022-10-15T07:30:17;100550.15;;;14.40;100.00
63281;BME280;49406;51.044;3.766;2022-10-15T07:32:37;100548.15;;;14.33;100.00
63281;BME280;49406;51.044;3.766;2022-10-15T07:34:56;100544.54;;;14.39;100.00
63281;BME280;49406;51.044;3.766;2022-10-15T07:37:15;100544.49;;;14.42;100.00
63281;BME280;49406;51.044;3.766;2022-10-15T07:39:35;100541.52;;;14.42;100.00
63281;BME280;49406;51.044;3.766;2022-10-15T07:41:54;100536.77;;;14.44;100.00
63281;BME280;49406;51.044;3.766;2022-10-15T07:44:14;100535.55;;;14.46;100.00
63281;BME280;49406;51.044;3.766;2022-10-15T07:46:31;100533.56;;;14.49;100.00
63281;BME280;49406;51.044;3.766;2022-10-15T07:48:51;100530.53;;;14.51;100.00
63281;BME280;49406;51.044;3.766;2022-10-15T07:51:11;100534.04;;;14.52;100.00
63281;BME280;49406;51.044;3.766;2022-10-15T07:53:31;100533.49;;;14.53;100.00
63281;BME280;49406;51.044;3.766;2022-10-15T07:55:51;100531.33;;;14.56;100.00
63281;BME280;49406;51.044;3.766;2022-10-15T07:58:10;100530.95;;;14.59;100.00
63281;BME280;49406;51.044;3.766;2022-10-15T08:00:30;100529.13;;;14.65;100.00
63281;BME280;49406;51.044;3.766;2022-10-15T08:02:49;100520.96;;;14.69;100.00
63281;BME280;49406;51.044;3.766;2022-10-15T08:05:09;100524.94;;;14.63;100.00
63281;BME280;49406;51.044;3.766;2022-10-15T08:07:28;100524.45;;;14.71;100.00
63281;BME280;49406;51.044;3.766;2022-10-15T08:09:46;100520.98;;;14.81;100.00
63281;BME280;49406;51.044;3.766;2022-10-15T08:12:06;100521.80;;;14.86;100.00
63281;BME280;49406;51.044;3.766;2022-10-15T08:14:25;100521.55;;;14.90;100.00
63281;BME280;49406;51.044;3.766;2022-10-15T08:16:43;100522.17;;;14.96;100.00
63281;BME280;49406;51.044;3.766;2022-10-15T08:19:03;100520.32;;;15.02;100.00
63281;BME280;49406;51.044;3.766;2022-10-15T08:21:22;100518.53;;;15.03;100.00
63281;BME280;49406;51.044;3.766;2022-10-15T08:23:42;100516.95;;;15.03;100.00
63281;BME280;49406;51.044;3.766;2022-10-15T08:26:01;100513.92;;;15.05;100.00
63281;BME280;49406;51.044;3.766;2022-10-15T08:28:19;100522.68;;;14.97;100.00
63281;BME280;49406;51.044;3.766;2022-10-15T08:30:38;100526.08;;;15.05;100.00
63281;BME280;49406;51.044;3.766;2022-10-15T08:32:58;100527.38;;;15.13;100.00
63281;BME280;49406;51.044;3.766;2022-10-15T08:35:16;100528.52;;;15.18;100.00
63281;BME280;49406;51.044;3.766;2022-10-15T08:37:35;100528.96;;;15.22;100.00
63281;BME280;49406;51.044;3.766;2022-10-15T08:39:54;100525.91;;;15.26;100.00
63281;BME280;49406;51.044;3.766;2022-10-15T08:42:19;100531.34;;;15.30;100.00
63281;BME280;49406;51.044;3.766;2022-10-15T08:44:39;100535.29;;;15.35;100.00
63281;BME280;49406;51.044;3.766;2022-10-15T08:47:04;100528.58;;;15.36;100.00
63281;BME280;49406;51.044;3.766;2022-10-15T08:49:33;100534.79;;;15.33;100.00
63281;BME280;49406;51.044;3.766;2022-10-15T08:51:56;100529.77;;;15.50;100.00
63281;BME280;49406;51.044;3.766;2022-10-15T08:54:20;100530.49;;;15.60;100.00
63281;BME280;49406;51.044;3.766;2022-10-15T08:56:42;100532.54;;;15.65;100.00
63281;BME280;49406;51.044;3.766;2022-10-15T08:59:06;100531.23;;;15.69;100.00
63281;BME280;49406;51.044;3.766;2022-10-15T09:01:39;100531.44;;;15.76;100.00
63281;BME280;49406;51.044;3.766;2022-10-15T09:04:11;100528.04;;;15.79;100.00
63281;BME280;49406;51.044;3.766;2022-10-15T09:06:35;100527.95;;;15.84;100.00
63281;BME280;49406;51.044;3.766;2022-10-15T09:09:01;100525.33;;;15.91;100.00
63281;BME280;49406;51.044;3.766;2022-10-15T09:11:29;100522.39;;;15.99;100.00
63281;BME280;49406;51.044;3.766;2022-10-15T09:13:52;100520.55;;;16.02;100.00
63281;BME280;49406;51.044;3.766;2022-10-15T09:16:15;100518.52;;;15.98;100.00
63281;BME280;49406;51.044;3.766;2022-10-15T09:18:36;100517.05;;;16.10;100.00
63281;BME280;49406;51.044;3.766;2022-10-15T09:20:57;100521.46;;;16.19;100.00
63281;BME280;49406;51.044;3.766;2022-10-15T09:23:19;100520.23;;;16.27;100.00
63281;BME280;49406;51.044;3.766;2022-10-15T09:25:42;100521.26;;;16.37;100.00
63281;BME280;49406;51.044;3.766;2022-10-15T09:28:09;100525.52;;;16.45;100.00
63281;BME280;49406;51.044;3.766;2022-10-15T09:30:33;100527.58;;;16.48;100.00
63281;BME280;49406;51.044;3.766;2022-10-15T09:32:59;100535.19;;;16.54;100.00
63281;BME280;49406;51.044;3.766;2022-10-15T09:35:20;100530.09;;;16.63;100.00
63281;BME280;49406;51.044;3.766;2022-10-15T09:37:48;100534.16;;;16.71;100.00
63281;BME280;49406;51.044;3.766;2022-10-15T09:40:26;100532.46;;;16.76;100.00
63281;BME280;49406;51.044;3.766;2022-10-15T09:42:50;100534.05;;;16.76;100.00
63281;BME280;49406;51.044;3.766;2022-10-15T09:45:14;100533.13;;;16.86;100.00
63281;BME280;49406;51.044;3.766;2022-10-15T09:47:34;100532.90;;;16.96;100.00
63281;BME280;49406;51.044;3.766;2022-10-15T09:49:54;100533.24;;;17.04;100.00
63281;BME280;49406;51.044;3.766;2022-10-15T09:52:18;100532.53;;;17.11;100.00
63281;BME280;49406;51.044;3.766;2022-10-15T09:54:44;100530.69;;;17.22;100.00
63281;BME280;49406;51.044;3.766;2022-10-15T09:57:09;100528.48;;;17.33;100.00
63281;BME280;49406;51.044;3.766;2022-10-15T09:59:29;100530.13;;;17.45;100.00
63281;BME280;49406;51.044;3.766;2022-10-15T10:01:59;100530.06;;;17.55;100.00
63281;BME280;49406;51.044;3.766;2022-10-15T10:04:20;100536.85;;;17.73;100.00
63281;BME280;49406;51.044;3.766;2022-10-15T10:06:46;100538.06;;;17.94;100.00
63281;BME280;49406;51.044;3.766;2022-10-15T10:09:10;100542.92;;;18.04;100.00
63281;BME280;49406;51.044;3.766;2022-10-15T10:11:47;100538.85;;;18.11;100.00
63281;BME280;49406;51.044;3.766;2022-10-15T10:14:14;100531.59;;;18.11;100.00
63281;BME280;49406;51.044;3.766;2022-10-15T10:16:38;100530.44;;;18.21;100.00
63281;BME280;49406;51.044;3.766;2022-10-15T10:19:18;100537.67;;;18.52;100.00
63281;BME280;49406;51.044;3.766;2022-10-15T10:21:37;100538.48;;;18.79;100.00
63281;BME280;49406;51.044;3.766;2022-10-15T10:24:19;100540.71;;;19.00;100.00
63281;BME280;49406;51.044;3.766;2022-10-15T10:26:40;100535.88;;;19.01;100.00
63281;BME280;49406;51.044;3.766;2022-10-15T10:28:59;100539.66;;;19.05;99.61
63281;BME280;49406;51.044;3.766;2022-10-15T10:31:27;100543.52;;;19.06;99.89
63281;BME280;49406;51.044;3.766;2022-10-15T10:33:50;100549.29;;;19.03;99.56
63281;BME280;49406;51.044;3.766;2022-10-15T10:36:20;100548.82;;;18.94;99.99
63281;BME280;49406;51.044;3.766;2022-10-15T10:38:42;100551.95;;;19.02;98.85
63281;BME280;49406;51.044;3.766;2022-10-15T10:41:13;100550.01;;;19.02;98.50
63281;BME280;49406;51.044;3.766;2022-10-15T10:43:33;100555.07;;;19.05;98.32
63281;BME280;49406;51.044;3.766;2022-10-15T10:45:58;100553.59;;;19.06;97.98
63281;BME280;49406;51.044;3.766;2022-10-15T10:48:22;100557.49;;;19.01;98.90
63281;BME280;49406;51.044;3.766;2022-10-15T10:50:41;100560.14;;;19.12;98.55
63281;BME280;49406;51.044;3.766;2022-10-15T10:53:12;100562.20;;;19.31;98.31
63281;BME280;49406;51.044;3.766;2022-10-15T10:55:36;100561.36;;;19.51;97.21
63281;BME280;49406;51.044;3.766;2022-10-15T10:57:57;100561.56;;;19.62;98.14
63281;BME280;49406;51.044;3.766;2022-10-15T11:00:19;100565.13;;;19.87;94.21
63281;BME280;49406;51.044;3.766;2022-10-15T11:02:40;100565.98;;;20.03;92.43
63281;BME280;49406;51.044;3.766;2022-10-15T11:05:01;100567.21;;;20.13;92.36
63281;BME280;49406;51.044;3.766;2022-10-15T11:07:23;100568.91;;;20.26;92.51
63281;BME280;49406;51.044;3.766;2022-10-15T11:09:54;100569.56;;;20.43;90.38
63281;BME280;49406;51.044;3.766;2022-10-15T11:12:49;100571.38;;;20.31;86.90
63281;BME280;49406;51.044;3.766;2022-10-15T11:15:26;100572.91;;;19.93;88.52
63281;BME280;49406;51.044;3.766;2022-10-15T11:17:53;100574.92;;;19.71;88.38
63281;BME280;49406;51.044;3.766;2022-10-15T11:20:24;100578.34;;;19.59;87.91
63281;BME280;49406;51.044;3.766;2022-10-15T11:22:58;100583.64;;;19.47;87.59
63281;BME280;49406;51.044;3.766;2022-10-15T11:25:25;100585.80;;;19.30;88.61
63281;BME280;49406;51.044;3.766;2022-10-15T11:28:00;100599.84;;;19.12;88.26
63281;BME280;49406;51.044;3.766;2022-10-15T11:30:40;100600.45;;;19.15;86.08
63281;BME280;49406;51.044;3.766;2022-10-15T11:33:14;100597.73;;;19.11;83.18
63281;BME280;49406;51.044;3.766;2022-10-15T11:35:45;100610.21;;;18.97;81.59
63281;BME280;49406;51.044;3.766;2022-10-15T11:38:16;100610.73;;;18.86;80.99
63281;BME280;49406;51.044;3.766;2022-10-15T11:40:48;100619.04;;;18.92;80.36
63281;BME280;49406;51.044;3.766;2022-10-15T11:43:18;100609.92;;;18.95;76.55
63281;BME280;49406;51.044;3.766;2022-10-15T11:45:56;100615.36;;;18.79;75.64
63281;BME280;49406;51.044;3.766;2022-10-15T11:48:24;100624.59;;;18.66;75.37
63281;BME280;49406;51.044;3.766;2022-10-15T11:50:48;100638.61;;;18.65;76.22
63281;BME280;49406;51.044;3.766;2022-10-15T11:53:29;100642.48;;;18.78;75.03
63281;BME280;49406;51.044;3.766;2022-10-15T11:55:53;100640.70;;;18.78;75.12
63281;BME280;49406;51.044;3.766;2022-10-15T11:58:23;100649.63;;;18.70;74.19
63281;BME280;49406;51.044;3.766;2022-10-15T12:00:48;100651.75;;;18.70;76.01
63281;BME280;49406;51.044;3.766;2022-10-15T12:03:15;100658.06;;;18.84;75.89
63281;BME280;49406;51.044;3.766;2022-10-15T12:05:40;100663.33;;;18.99;75.98
63281;BME280;49406;51.044;3.766;2022-10-15T12:08:03;100664.70;;;18.93;72.68
63281;BME280;49406;51.044;3.766;2022-10-15T12:10:34;100673.16;;;18.83;72.63
63281;BME280;49406;51.044;3.766;2022-10-15T12:13:01;100677.81;;;18.81;73.64
63281;BME280;49406;51.044;3.766;2022-10-15T12:15:29;100689.73;;;18.86;73.63